createdAt,value
2019-01-30T00:01:50.856Z,5.93
2019-01-30T00:04:20.683Z,5.20
2019-01-30T00:06:50.605Z,4.97
2019-01-30T00:09:20.536Z,4.60
2019-01-30T00:11:50.362Z,4.83
2019-01-30T00:14:20.210Z,4.50
2019-01-30T00:16:50.043Z,5.03
2019-01-30T00:19:19.886Z,4.67
2019-01-30T00:21:49.715Z,4.63
2019-01-30T00:24:19.529Z,4.70
2019-01-30T00:26:49.358Z,5.10
2019-01-30T00:29:19.168Z,4.40
2019-01-30T00:31:48.987Z,4.33
2019-01-30T00:34:18.806Z,4.57
2019-01-30T00:36:48.658Z,4.57
2019-01-30T00:39:18.487Z,5.23
2019-01-30T00:41:48.335Z,4.43
2019-01-30T00:44:18.166Z,4.40
2019-01-30T00:46:47.979Z,4.80
2019-01-30T00:49:17.818Z,4.70
2019-01-30T00:51:47.636Z,4.60
2019-01-30T00:54:17.474Z,4.87
2019-01-30T00:56:47.298Z,4.60
2019-01-30T00:59:17.102Z,4.53
2019-01-30T01:01:46.957Z,4.60
2019-01-30T01:04:16.763Z,4.03
2019-01-30T01:06:46.626Z,4.80
2019-01-30T01:09:16.423Z,4.60
2019-01-30T01:11:46.249Z,4.63
2019-01-30T01:14:16.091Z,5.03
2019-01-30T01:16:45.898Z,4.50
2019-01-30T01:19:15.823Z,5.43
2019-01-30T01:22:43.507Z,5.23
2019-01-30T01:25:15.687Z,5.27
2019-01-30T01:27:46.031Z,4.97
2019-01-30T01:30:25.243Z,5.40
2019-01-30T01:32:53.487Z,4.97
2019-01-30T01:35:23.589Z,5.47
2019-01-30T01:37:53.398Z,5.53
2019-01-30T01:40:23.285Z,6.00
2019-01-30T01:42:53.101Z,5.10
2019-01-30T01:45:24.498Z,5.30
2019-01-30T01:47:54.325Z,4.87
2019-01-30T01:50:24.495Z,5.50
2019-01-30T01:52:54.348Z,4.70
2019-01-30T01:55:24.170Z,5.23
2019-01-30T01:57:53.997Z,5.40
2019-01-30T02:00:24.275Z,5.73
2019-01-30T02:02:54.085Z,5.20
2019-01-30T02:05:24.268Z,5.33
2019-01-30T02:07:54.126Z,5.23
2019-01-30T02:10:25.270Z,4.93
2019-01-30T02:12:55.169Z,4.83
2019-01-30T02:15:25.007Z,4.77
2019-01-30T02:17:54.880Z,5.13
2019-01-30T02:20:30.358Z,4.80
2019-01-30T02:23:00.190Z,4.83
2019-01-30T02:25:30.262Z,5.23
2019-01-30T02:28:00.076Z,4.90
2019-01-30T02:30:30.848Z,5.07
2019-01-30T02:33:00.748Z,5.10
2019-01-30T02:35:30.593Z,4.60
2019-01-30T02:38:00.414Z,4.73
2019-01-30T02:40:30.304Z,4.50
2019-01-30T02:43:01.200Z,4.43
2019-01-30T02:45:31.231Z,4.03
2019-01-30T02:48:01.325Z,4.50
2019-01-30T02:50:31.154Z,4.07
2019-01-30T02:53:00.951Z,4.30
2019-01-30T02:55:30.794Z,4.13
2019-01-30T02:58:00.637Z,4.00
2019-01-30T03:00:35.757Z,3.83
2019-01-30T03:03:05.590Z,3.90
2019-01-30T03:05:35.400Z,4.13
2019-01-30T03:08:05.346Z,4.00
2019-01-30T03:10:35.147Z,3.57
2019-01-30T03:13:05.148Z,4.30
2019-01-30T03:15:34.995Z,3.80
2019-01-30T03:18:05.074Z,4.33
2019-01-30T03:20:34.926Z,4.07
2019-01-30T03:23:04.738Z,3.63
2019-01-30T03:25:34.606Z,4.03
2019-01-30T03:28:04.473Z,3.63
2019-01-30T03:30:34.308Z,3.67
2019-01-30T03:33:04.497Z,3.60
2019-01-30T03:35:34.338Z,4.17
2019-01-30T03:38:04.176Z,3.90
2019-01-30T03:40:34.011Z,3.47
2019-01-30T03:43:04.497Z,3.83
2019-01-30T03:45:34.334Z,3.70
2019-01-30T03:48:04.135Z,3.30
2019-01-30T03:50:33.976Z,3.43
2019-01-30T03:53:03.858Z,3.07
2019-01-30T03:55:33.673Z,3.57
2019-01-30T03:58:03.583Z,3.57
2019-01-30T04:00:33.404Z,3.57
2019-01-30T04:03:03.229Z,3.40
2019-01-30T04:05:33.047Z,3.00
2019-01-30T04:08:02.881Z,3.60
2019-01-30T04:10:32.765Z,3.80
2019-01-30T04:13:02.575Z,3.87
2019-01-30T04:15:32.419Z,3.30
2019-01-30T04:18:02.262Z,3.60
2019-01-30T04:20:32.050Z,4.00
2019-01-30T04:23:01.961Z,3.80
2019-01-30T04:25:31.789Z,3.90
2019-01-30T04:28:01.632Z,4.03
2019-01-30T04:30:31.424Z,3.43
2019-01-30T04:33:01.294Z,3.27
2019-01-30T04:35:31.210Z,3.73
2019-01-30T04:38:01.023Z,3.60
2019-01-30T04:40:30.844Z,3.40
2019-01-30T04:43:00.663Z,3.30
2019-01-30T04:45:30.493Z,3.53
2019-01-30T04:48:00.345Z,3.43
2019-01-30T04:50:30.265Z,3.97
2019-01-30T04:53:00.071Z,3.57
2019-01-30T04:55:29.869Z,3.40
2019-01-30T04:57:59.722Z,3.80
2019-01-30T05:00:29.522Z,3.90
2019-01-30T05:02:59.344Z,4.10
2019-01-30T05:05:29.186Z,3.80
2019-01-30T05:07:59.019Z,3.70
2019-01-30T05:10:28.840Z,4.07
2019-01-30T05:12:58.651Z,3.30
2019-01-30T05:15:28.474Z,4.27
2019-01-30T05:17:58.297Z,3.70
2019-01-30T05:20:28.126Z,4.60
2019-01-30T05:22:57.945Z,4.57
2019-01-30T05:25:27.832Z,4.13
2019-01-30T05:27:57.639Z,4.33
2019-01-30T05:30:32.150Z,3.87
2019-01-30T05:33:01.956Z,4.10
2019-01-30T05:35:31.804Z,4.10
2019-01-30T05:38:01.650Z,4.00
2019-01-30T05:40:31.455Z,4.60
2019-01-30T05:43:01.341Z,4.13
2019-01-30T05:45:31.138Z,4.63
2019-01-30T05:48:00.977Z,4.70
2019-01-30T05:50:30.827Z,4.37
2019-01-30T05:53:00.640Z,4.13
2019-01-30T05:55:30.459Z,4.43
2019-01-30T05:58:00.270Z,4.97
2019-01-30T06:00:34.759Z,4.40
2019-01-30T06:03:07.537Z,4.90
2019-01-30T06:05:37.378Z,4.67
2019-01-30T06:08:07.193Z,4.73
2019-01-30T06:10:36.994Z,4.50
2019-01-30T06:13:06.970Z,4.97
2019-01-30T06:15:36.818Z,5.00
2019-01-30T06:18:06.645Z,5.00
2019-01-30T06:20:37.421Z,5.00
2019-01-30T06:23:07.270Z,4.40
2019-01-30T06:25:37.078Z,5.37
2019-01-30T06:28:06.920Z,4.70
2019-01-30T06:30:36.785Z,4.93
2019-01-30T06:33:06.618Z,5.37
2019-01-30T06:35:36.453Z,5.53
2019-01-30T06:38:06.348Z,5.23
2019-01-30T06:40:36.171Z,5.20
2019-01-30T06:43:06.032Z,5.20
2019-01-30T06:45:35.837Z,5.20
2019-01-30T06:48:06.413Z,5.07
2019-01-30T06:50:36.209Z,5.33
2019-01-30T06:53:06.030Z,4.83
2019-01-30T06:55:35.850Z,5.40
2019-01-30T06:58:05.760Z,5.60
2019-01-30T07:00:35.569Z,5.50
2019-01-30T07:03:05.622Z,5.10
2019-01-30T07:05:35.454Z,5.00
2019-01-30T07:08:05.257Z,6.60
2019-01-30T07:10:35.081Z,5.47
2019-01-30T07:13:04.918Z,5.40
2019-01-30T07:15:34.726Z,5.43
2019-01-30T07:18:04.887Z,5.60
2019-01-30T07:20:34.721Z,5.53
2019-01-30T07:23:04.661Z,5.40
2019-01-30T07:25:36.799Z,5.70
2019-01-30T07:28:06.161Z,5.83
2019-01-30T07:30:36.330Z,5.37
2019-01-30T07:33:06.212Z,5.60
2019-01-30T07:35:36.056Z,6.40
2019-01-30T07:38:05.877Z,5.57
2019-01-30T07:40:35.708Z,5.23
2019-01-30T07:43:05.577Z,5.90
2019-01-30T07:45:35.407Z,5.70
2019-01-30T07:48:05.273Z,6.43
2019-01-30T07:50:35.088Z,6.50
2019-01-30T07:53:05.002Z,5.77
2019-01-30T07:55:34.822Z,6.57
2019-01-30T07:58:05.923Z,6.20
2019-01-30T08:00:35.910Z,6.40
2019-01-30T08:03:05.733Z,6.07
2019-01-30T08:05:35.642Z,6.40
2019-01-30T08:08:05.624Z,6.27
2019-01-30T08:10:35.442Z,6.10
2019-01-30T08:13:05.342Z,6.73
2019-01-30T08:15:35.187Z,6.77
2019-01-30T08:18:05.346Z,6.70
2019-01-30T08:20:35.176Z,6.60
2019-01-30T08:23:05.181Z,6.77
2019-01-30T08:25:35.346Z,7.10
2019-01-30T08:28:05.393Z,6.50
2019-01-30T08:30:35.597Z,6.63
2019-01-30T08:33:06.134Z,6.57
2019-01-30T08:35:36.135Z,6.03
2019-01-30T08:38:06.641Z,7.20
2019-01-30T08:40:36.478Z,7.07
2019-01-30T08:43:16.521Z,6.67
2019-01-30T08:45:46.653Z,6.50
2019-01-30T08:48:16.610Z,6.97
2019-01-30T08:50:46.427Z,6.80
2019-01-30T08:53:16.265Z,6.80
2019-01-30T08:55:46.319Z,6.60
2019-01-30T08:58:16.146Z,6.70
2019-01-30T09:00:45.978Z,6.93
2019-01-30T09:03:15.779Z,6.37
2019-01-30T09:05:45.590Z,7.10
2019-01-30T09:08:15.413Z,6.53
2019-01-30T09:10:45.253Z,6.97
2019-01-30T09:13:15.085Z,6.77
2019-01-30T09:15:44.958Z,7.13
2019-01-30T09:18:14.933Z,6.87
2019-01-30T09:20:44.754Z,7.67
2019-01-30T09:23:14.570Z,7.13
2019-01-30T09:25:44.420Z,7.37
2019-01-30T09:28:14.272Z,6.27
2019-01-30T09:30:44.082Z,6.73
2019-01-30T09:33:13.931Z,6.47
2019-01-30T09:35:43.763Z,6.50
2019-01-30T09:38:13.594Z,7.10
2019-01-30T09:40:43.429Z,6.60
2019-01-30T09:43:13.250Z,6.90
2019-01-30T09:45:43.085Z,6.70
2019-01-30T09:48:12.926Z,6.77
2019-01-30T09:50:42.849Z,7.00
2019-01-30T09:53:12.686Z,7.13
2019-01-30T09:55:42.536Z,6.80
2019-01-30T09:58:16.222Z,6.53
2019-01-30T10:00:46.022Z,6.87
2019-01-30T10:03:15.838Z,6.97
2019-01-30T10:05:45.650Z,6.10
2019-01-30T10:08:15.509Z,6.40
2019-01-30T10:10:45.328Z,7.00
2019-01-30T10:13:15.177Z,6.60
2019-01-30T10:15:45.883Z,6.80
2019-01-30T10:18:15.882Z,6.43
2019-01-30T10:20:47.145Z,6.30
2019-01-30T10:23:16.984Z,6.17
2019-01-30T10:25:46.816Z,6.23
2019-01-30T10:28:17.267Z,5.90
2019-01-30T10:30:47.964Z,6.57
2019-01-30T10:33:17.962Z,5.83
2019-01-30T10:35:47.981Z,6.30
2019-01-30T10:38:17.910Z,6.10
2019-01-30T10:40:48.836Z,6.03
2019-01-30T10:43:18.690Z,6.13
2019-01-30T10:45:48.666Z,7.03
2019-01-30T10:48:18.510Z,6.93
2019-01-30T10:50:48.324Z,6.60
2019-01-30T10:53:18.170Z,6.50
2019-01-30T10:55:48.018Z,5.93
2019-01-30T10:58:17.878Z,6.20
2019-01-30T11:00:49.761Z,6.00
2019-01-30T11:03:19.664Z,6.13
2019-01-30T11:05:49.482Z,5.67
2019-01-30T11:08:19.293Z,6.30
2019-01-30T11:10:50.957Z,5.93
2019-01-30T11:13:20.646Z,6.50
2019-01-30T11:15:50.459Z,5.93
2019-01-30T11:18:20.306Z,6.57
2019-01-30T11:20:50.105Z,6.60
2019-01-30T11:23:19.955Z,6.37
2019-01-30T11:25:50.049Z,6.27
2019-01-30T11:28:19.865Z,5.57
2019-01-30T11:30:49.704Z,6.30
2019-01-30T11:33:19.616Z,6.17
2019-01-30T11:35:49.505Z,5.43
2019-01-30T11:38:19.341Z,6.10
2019-01-30T11:40:49.177Z,6.37
2019-01-30T11:43:18.990Z,6.83
2019-01-30T11:45:48.838Z,6.17
2019-01-30T11:48:18.642Z,7.10
2019-01-30T11:50:48.516Z,7.17
2019-01-30T11:53:18.374Z,6.90
2019-01-30T11:55:49.266Z,6.87
2019-01-30T11:58:19.118Z,6.10
2019-01-30T12:00:53.261Z,7.50
2019-01-30T12:03:23.105Z,7.47
2019-01-30T12:05:52.934Z,7.00
2019-01-30T12:08:22.749Z,6.50
2019-01-30T12:10:52.605Z,6.83
2019-01-30T12:13:22.400Z,6.80
2019-01-30T12:15:52.225Z,6.73
2019-01-30T12:18:22.056Z,6.30
2019-01-30T12:20:52.129Z,6.43
2019-01-30T12:23:22.190Z,6.90
2019-01-30T12:25:52.065Z,6.63
2019-01-30T12:28:21.865Z,7.30
2019-01-30T12:30:51.703Z,7.37
2019-01-30T12:33:21.534Z,6.60
2019-01-30T12:35:51.356Z,7.43
2019-01-30T12:38:21.174Z,6.70
2019-01-30T12:40:51.007Z,6.63
2019-01-30T12:43:20.840Z,7.03
2019-01-30T12:45:50.665Z,6.97
2019-01-30T12:48:20.485Z,7.07
2019-01-30T12:50:50.385Z,6.53
2019-01-30T12:53:20.230Z,6.07
2019-01-30T12:55:50.122Z,7.27
2019-01-30T12:58:20.125Z,7.30
2019-01-30T13:00:50.120Z,7.50
2019-01-30T13:03:19.951Z,6.97
2019-01-30T13:05:49.814Z,7.33
2019-01-30T13:08:19.643Z,6.60
2019-01-30T13:10:49.486Z,7.13
2019-01-30T13:13:19.330Z,7.17
2019-01-30T13:15:49.154Z,7.80
2019-01-30T13:18:19.108Z,7.03
2019-01-30T13:20:48.981Z,7.30
2019-01-30T13:23:18.813Z,7.13
2019-01-30T13:25:48.641Z,8.03
2019-01-30T13:28:18.478Z,8.50
2019-01-30T13:30:48.386Z,7.70
2019-01-30T13:33:21.504Z,8.73
2019-01-30T13:35:53.029Z,7.57
2019-01-30T13:38:22.900Z,7.50
2019-01-30T13:40:54.061Z,8.60
2019-01-30T13:43:23.873Z,7.67
2019-01-30T13:45:53.698Z,9.10
2019-01-30T13:48:23.565Z,8.47
2019-01-30T13:50:54.451Z,6.97
2019-01-30T13:53:24.278Z,7.73
2019-01-30T13:55:54.208Z,7.87
2019-01-30T13:58:24.088Z,8.20
2019-01-30T14:00:53.939Z,7.60
2019-01-30T14:03:23.827Z,7.83
2019-01-30T14:05:53.721Z,6.90
2019-01-30T14:08:23.521Z,7.63
2019-01-30T14:10:53.370Z,7.93
2019-01-30T14:13:23.198Z,8.03
2019-01-30T14:15:53.068Z,7.77
2019-01-30T14:18:22.921Z,7.37
2019-01-30T14:20:53.717Z,8.87
2019-01-30T14:23:23.570Z,8.80
2019-01-30T14:25:53.474Z,7.80
2019-01-30T14:28:23.313Z,7.97
2019-01-30T14:30:53.162Z,8.10
2019-01-30T14:33:23.021Z,8.77
2019-01-30T14:35:52.856Z,8.93
2019-01-30T14:38:22.661Z,8.13
2019-01-30T14:40:52.491Z,9.13
2019-01-30T14:43:22.314Z,8.20
2019-01-30T14:45:53.934Z,8.70
2019-01-30T14:48:24.129Z,8.20
2019-01-30T14:50:54.014Z,8.83
2019-01-30T14:53:23.893Z,8.77
2019-01-30T14:55:53.836Z,9.73
2019-01-30T14:58:24.883Z,9.10
2019-01-30T15:00:54.967Z,8.83
2019-01-30T15:03:24.861Z,8.60
2019-01-30T15:05:54.715Z,9.50
2019-01-30T15:08:24.596Z,8.53
2019-01-30T15:10:54.435Z,9.57
2019-01-30T15:13:24.275Z,9.23
2019-01-30T15:15:54.103Z,11.83
2019-01-30T15:18:23.968Z,9.60
2019-01-30T15:20:53.891Z,9.90
2019-01-30T15:23:23.702Z,9.77
2019-01-30T15:25:53.678Z,10.27
2019-01-30T15:28:23.560Z,11.27
2019-01-30T15:30:53.430Z,9.73
2019-01-30T15:33:23.257Z,10.23
2019-01-30T15:35:53.092Z,9.80
2019-01-30T15:38:22.920Z,10.70
2019-01-30T15:40:52.764Z,10.60
2019-01-30T15:43:22.605Z,11.27
2019-01-30T15:45:52.446Z,10.33
2019-01-30T15:48:22.590Z,10.57
2019-01-30T15:50:52.401Z,9.73
2019-01-30T15:53:22.254Z,10.00
2019-01-30T15:55:52.104Z,9.87
2019-01-30T15:58:21.927Z,11.70
2019-01-30T16:00:55.075Z,11.43
2019-01-30T16:03:25.090Z,10.27
2019-01-30T16:05:54.942Z,10.27
2019-01-30T16:08:24.766Z,10.63
2019-01-30T16:10:54.591Z,11.20
2019-01-30T16:13:24.446Z,10.73
2019-01-30T16:16:02.641Z,11.00
2019-01-30T16:18:32.484Z,10.83
2019-01-30T16:21:02.318Z,10.40
2019-01-30T16:23:32.164Z,10.93
2019-01-30T16:26:02.014Z,10.60
2019-01-30T16:28:33.114Z,10.60
2019-01-30T16:31:02.990Z,10.47
2019-01-30T16:33:32.830Z,10.13
2019-01-30T16:36:02.751Z,10.10
2019-01-30T16:38:32.562Z,10.40
2019-01-30T16:41:02.402Z,10.90
2019-01-30T16:43:32.235Z,10.87
2019-01-30T16:46:02.226Z,10.93
2019-01-30T16:48:32.059Z,10.37
2019-01-30T16:51:01.887Z,11.30
2019-01-30T16:53:31.799Z,11.03
2019-01-30T16:56:01.645Z,10.90
2019-01-30T16:58:31.467Z,11.63
2019-01-30T17:01:01.283Z,10.73
2019-01-30T17:03:31.113Z,11.90
2019-01-30T17:06:07.651Z,11.33
2019-01-30T17:08:32.477Z,11.07
2019-01-30T17:11:02.306Z,11.73
2019-01-30T17:13:32.117Z,11.00
2019-01-30T17:16:01.945Z,10.57
2019-01-30T17:18:31.872Z,11.07
2019-01-30T17:21:01.782Z,11.30
2019-01-30T17:23:32.598Z,11.23
2019-01-30T17:26:02.450Z,11.53
2019-01-30T17:28:32.280Z,12.53
2019-01-30T17:31:03.347Z,12.03
2019-01-30T17:33:33.170Z,11.87
2019-01-30T17:36:03.132Z,11.80
2019-01-30T17:38:32.964Z,12.00
2019-01-30T17:41:02.818Z,12.10
2019-01-30T17:43:32.674Z,12.63
2019-01-30T17:46:02.513Z,11.77
2019-01-30T17:48:32.365Z,13.37
2019-01-30T17:51:02.236Z,13.07
2019-01-30T17:53:32.113Z,12.00
2019-01-30T17:56:01.933Z,12.17
2019-01-30T17:58:34.349Z,10.37
2019-01-30T18:01:03.612Z,11.10
2019-01-30T18:03:33.417Z,11.47
2019-01-30T18:06:03.250Z,12.63
2019-01-30T18:08:33.233Z,12.87
2019-01-30T18:11:03.077Z,12.60
2019-01-30T18:13:32.895Z,13.30
2019-01-30T18:16:02.830Z,13.30
2019-01-30T18:18:32.639Z,14.10
2019-01-30T18:21:02.563Z,13.60
2019-01-30T18:23:32.394Z,14.50
2019-01-30T18:26:02.209Z,13.70
2019-01-30T18:28:32.066Z,14.30
2019-01-30T18:31:01.903Z,14.90
2019-01-30T18:33:31.730Z,15.83
2019-01-30T18:36:01.550Z,15.90
2019-01-30T18:38:31.413Z,17.60
2019-01-30T18:41:01.256Z,18.40
2019-01-30T18:43:31.102Z,17.63
2019-01-30T18:46:00.946Z,18.90
2019-01-30T18:48:30.860Z,18.77
2019-01-30T18:51:00.777Z,19.17
2019-01-30T18:53:30.589Z,20.57
2019-01-30T18:56:00.413Z,20.43
2019-01-30T18:58:30.262Z,21.53
2019-01-30T19:01:00.091Z,21.07
2019-01-30T19:03:29.925Z,21.40
2019-01-30T19:05:59.778Z,22.10
2019-01-30T19:08:31.393Z,21.67
2019-01-30T19:11:01.141Z,22.73
2019-01-30T19:13:30.966Z,23.00
2019-01-30T19:16:00.820Z,23.27
2019-01-30T19:18:30.681Z,23.17
2019-01-30T19:21:00.842Z,23.73
2019-01-30T19:23:30.688Z,23.60
2019-01-30T19:26:00.529Z,23.77
2019-01-30T19:28:30.345Z,23.93
2019-01-30T19:31:00.218Z,22.80
2019-01-30T19:33:30.029Z,22.97
2019-01-30T19:35:59.865Z,25.03
2019-01-30T19:38:29.683Z,24.33
2019-01-30T19:40:59.600Z,26.13
2019-01-30T19:43:29.448Z,25.30
2019-01-30T19:45:59.286Z,25.30
2019-01-30T19:48:29.105Z,26.87
2019-01-30T19:51:01.555Z,25.20
2019-01-30T19:53:30.445Z,25.97
2019-01-30T19:56:00.277Z,27.57
2019-01-30T19:58:30.121Z,27.33
2019-01-30T20:00:59.933Z,27.83
2019-01-30T20:03:31.345Z,28.23
2019-01-30T20:06:01.361Z,28.77
2019-01-30T20:08:31.213Z,28.30
2019-01-30T20:11:01.026Z,28.33
2019-01-30T20:13:30.868Z,29.97
2019-01-30T20:16:00.757Z,28.53
2019-01-30T20:18:30.597Z,26.60
2019-01-30T20:21:00.450Z,25.50
2019-01-30T20:23:30.287Z,25.83
2019-01-30T20:26:00.131Z,26.70
2019-01-30T20:28:29.961Z,25.53
2019-01-30T20:31:01.307Z,25.03
2019-01-30T20:33:31.378Z,25.17
2019-01-30T20:36:02.194Z,23.30
2019-01-30T20:38:33.083Z,24.40
2019-01-30T20:41:02.983Z,22.73
2019-01-30T20:43:32.834Z,22.43
2019-01-30T20:46:02.704Z,22.70
2019-01-30T20:48:32.530Z,22.70
2019-01-30T20:51:02.350Z,21.83
2019-01-30T20:53:32.179Z,21.50
2019-01-30T20:56:01.993Z,22.17
2019-01-30T20:58:31.841Z,22.00
2019-01-30T21:01:01.677Z,20.53
2019-01-30T21:03:31.526Z,22.30
2019-01-30T21:06:01.350Z,20.77
2019-01-30T21:08:31.173Z,18.53
2019-01-30T21:11:01.008Z,19.63
2019-01-30T21:13:30.986Z,18.63
2019-01-30T21:16:00.994Z,17.90
2019-01-30T21:18:30.817Z,19.40
2019-01-30T21:21:00.664Z,16.03
2019-01-30T21:23:30.553Z,15.13
2019-01-30T21:26:00.426Z,15.60
2019-01-30T21:28:30.262Z,14.97
2019-01-30T21:31:00.086Z,15.30
2019-01-30T21:33:29.901Z,13.23
2019-01-30T21:35:59.758Z,13.27
2019-01-30T21:38:29.574Z,12.70
2019-01-30T21:40:59.406Z,13.50
2019-01-30T21:43:29.261Z,12.60
2019-01-30T21:45:59.080Z,10.83
2019-01-30T21:48:28.905Z,11.67
2019-01-30T21:50:58.750Z,10.93
2019-01-30T21:53:28.573Z,11.43
2019-01-30T21:55:58.393Z,10.13
2019-01-30T21:58:28.227Z,10.00
2019-01-30T22:00:58.070Z,9.17
2019-01-30T22:03:27.891Z,10.00
2019-01-30T22:05:57.745Z,10.00
2019-01-30T22:08:27.589Z,9.80
2019-01-30T22:10:57.417Z,10.33
2019-01-30T22:13:27.270Z,8.77
2019-01-30T22:15:57.171Z,8.87
2019-01-30T22:18:27.008Z,9.33
2019-01-30T22:20:56.857Z,8.83
2019-01-30T22:23:26.672Z,9.10
2019-01-30T22:25:56.485Z,9.20
2019-01-30T22:28:26.305Z,8.60
2019-01-30T22:30:56.143Z,9.47
2019-01-30T22:33:25.961Z,8.73
2019-01-30T22:35:55.790Z,9.17
2019-01-30T22:38:25.607Z,8.73
2019-01-30T22:40:55.558Z,8.57
2019-01-30T22:43:25.392Z,9.10
2019-01-30T22:45:55.210Z,9.23
2019-01-30T22:48:25.048Z,8.47
2019-01-30T22:50:55.165Z,8.60
2019-01-30T22:53:25.013Z,8.87
2019-01-30T22:55:55.789Z,8.87
2019-01-30T22:58:25.642Z,8.87
2019-01-30T23:01:08.912Z,9.47
2019-01-30T23:03:47.782Z,9.37
2019-01-30T23:06:35.718Z,9.80
2019-01-30T23:09:26.538Z,9.53
2019-01-30T23:12:16.256Z,10.50
2019-01-30T23:14:49.197Z,10.87
2019-01-30T23:17:22.132Z,10.77
2019-01-30T23:19:55.037Z,11.83
2019-01-30T23:22:47.651Z,11.33
2019-01-30T23:25:26.573Z,11.87
2019-01-30T23:27:59.487Z,11.80
2019-01-30T23:30:43.985Z,11.90
2019-01-30T23:33:34.617Z,13.07
2019-01-30T23:36:25.089Z,14.23
2019-01-30T23:39:00.774Z,14.87
2019-01-30T23:41:40.917Z,16.07
2019-01-30T23:44:16.646Z,17.83
2019-01-30T23:46:58.102Z,18.03
2019-01-30T23:49:36.861Z,20.37
2019-01-30T23:52:28.086Z,20.57
2019-01-30T23:55:15.905Z,20.43
2019-01-30T23:57:48.797Z,20.40
